sensor_id;sensor_type;location;lat;lon;timestamp;temperature;humidity
51739;DHT22;37815;52.692;6.226;2023-04-16T00:01:08;11.10;96.80
51739;DHT22;37815;52.692;6.226;2023-04-16T00:06:10;11.10;96.80
51739;DHT22;37815;52.692;6.226;2023-04-16T00:11:11;11.00;96.80
51739;DHT22;37815;52.692;6.226;2023-04-16T00:16:11;11.10;96.80
51739;DHT22;37815;52.692;6.226;2023-04-16T00:21:12;11.00;96.80
51739;DHT22;37815;52.692;6.226;2023-04-16T00:26:13;11.00;96.80
51739;DHT22;37815;52.692;6.226;2023-04-16T00:31:13;11.00;96.80
51739;DHT22;37815;52.692;6.226;2023-04-16T00:36:14;11.00;96.80
51739;DHT22;37815;52.692;6.226;2023-04-16T00:41:15;11.00;96.80
51739;DHT22;37815;52.692;6.226;2023-04-16T00:46:18;11.00;96.80
51739;DHT22;37815;52.692;6.226;2023-04-16T00:51:20;11.00;96.90
51739;DHT22;37815;52.692;6.226;2023-04-16T00:56:21;11.00;96.90
51739;DHT22;37815;52.692;6.226;2023-04-16T01:01:23;11.00;96.90
51739;DHT22;37815;52.692;6.226;2023-04-16T01:06:24;11.00;96.90
51739;DHT22;37815;52.692;6.226;2023-04-16T01:11:25;11.00;96.90
51739;DHT22;37815;52.692;6.226;2023-04-16T01:16:25;11.00;96.90
51739;DHT22;37815;52.692;6.226;2023-04-16T01:21:26;11.00;96.90
51739;DHT22;37815;52.692;6.226;2023-04-16T01:26:27;11.00;96.90
51739;DHT22;37815;52.692;6.226;2023-04-16T01:31:27;11.00;96.90
51739;DHT22;37815;52.692;6.226;2023-04-16T01:36:28;11.00;96.80
51739;DHT22;37815;52.692;6.226;2023-04-16T01:41:30;11.00;96.90
51739;DHT22;37815;52.692;6.226;2023-04-16T01:46:32;11.00;96.90
51739;DHT22;37815;52.692;6.226;2023-04-16T01:51:34;11.00;96.90
51739;DHT22;37815;52.692;6.226;2023-04-16T01:56:34;11.00;96.90
51739;DHT22;37815;52.692;6.226;2023-04-16T02:01:35;11.00;96.90
51739;DHT22;37815;52.692;6.226;2023-04-16T02:06:36;11.00;96.90
51739;DHT22;37815;52.692;6.226;2023-04-16T02:11:36;11.00;96.90
51739;DHT22;37815;52.692;6.226;2023-04-16T02:16:37;11.00;96.90
51739;DHT22;37815;52.692;6.226;2023-04-16T02:21:38;11.00;96.90
51739;DHT22;37815;52.692;6.226;2023-04-16T02:26:39;11.00;96.90
51739;DHT22;37815;52.692;6.226;2023-04-16T02:31:40;11.00;96.90
51739;DHT22;37815;52.692;6.226;2023-04-16T02:36:41;11.00;96.90
51739;DHT22;37815;52.692;6.226;2023-04-16T02:41:41;11.00;96.90
51739;DHT22;37815;52.692;6.226;2023-04-16T02:46:42;11.00;96.90
51739;DHT22;37815;52.692;6.226;2023-04-16T02:51:42;11.00;96.90
51739;DHT22;37815;52.692;6.226;2023-04-16T02:56:43;11.00;96.90
51739;DHT22;37815;52.692;6.226;2023-04-16T03:01:43;11.00;96.90
51739;DHT22;37815;52.692;6.226;2023-04-16T03:06:44;11.00;96.90
51739;DHT22;37815;52.692;6.226;2023-04-16T03:11:45;11.00;96.90
51739;DHT22;37815;52.692;6.226;2023-04-16T03:16:45;11.00;96.90
51739;DHT22;37815;52.692;6.226;2023-04-16T03:21:50;11.00;96.90
51739;DHT22;37815;52.692;6.226;2023-04-16T03:26:50;11.00;96.90
51739;DHT22;37815;52.692;6.226;2023-04-16T03:31:51;11.00;96.90
51739;DHT22;37815;52.692;6.226;2023-04-16T03:36:52;11.00;96.90
51739;DHT22;37815;52.692;6.226;2023-04-16T03:41:52;11.00;96.90
51739;DHT22;37815;52.692;6.226;2023-04-16T03:46:53;11.00;96.90
51739;DHT22;37815;52.692;6.226;2023-04-16T03:51:54;11.00;96.90
51739;DHT22;37815;52.692;6.226;2023-04-16T03:56:54;11.00;96.90
51739;DHT22;37815;52.692;6.226;2023-04-16T04:01:56;11.00;96.90
51739;DHT22;37815;52.692;6.226;2023-04-16T04:06:57;11.00;96.90
51739;DHT22;37815;52.692;6.226;2023-04-16T04:11:57;11.00;96.90
51739;DHT22;37815;52.692;6.226;2023-04-16T04:16:58;11.00;96.90
51739;DHT22;37815;52.692;6.226;2023-04-16T04:21:58;11.00;96.90
51739;DHT22;37815;52.692;6.226;2023-04-16T04:26:59;11.00;96.90
51739;DHT22;37815;52.692;6.226;2023-04-16T04:32:01;11.00;96.90
51739;DHT22;37815;52.692;6.226;2023-04-16T04:37:01;11.00;96.90
51739;DHT22;37815;52.692;6.226;2023-04-16T04:42:02;11.00;96.90
51739;DHT22;37815;52.692;6.226;2023-04-16T04:47:03;11.00;96.90
51739;DHT22;37815;52.692;6.226;2023-04-16T04:52:03;11.00;97.20
51739;DHT22;37815;52.692;6.226;2023-04-16T04:57:04;10.90;97.10
51739;DHT22;37815;52.692;6.226;2023-04-16T05:02:05;10.90;97.40
51739;DHT22;37815;52.692;6.226;2023-04-16T05:07:05;11.00;97.10
51739;DHT22;37815;52.692;6.226;2023-04-16T05:12:06;11.00;97.10
51739;DHT22;37815;52.692;6.226;2023-04-16T05:17:07;11.00;97.20
51739;DHT22;37815;52.692;6.226;2023-04-16T05:22:07;11.00;97.10
51739;DHT22;37815;52.692;6.226;2023-04-16T05:27:08;11.00;97.10
51739;DHT22;37815;52.692;6.226;2023-04-16T05:32:08;11.00;97.10
51739;DHT22;37815;52.692;6.226;2023-04-16T05:37:09;11.00;97.10
51739;DHT22;37815;52.692;6.226;2023-04-16T05:42:10;11.00;97.10
51739;DHT22;37815;52.692;6.226;2023-04-16T05:47:10;11.00;97.10
51739;DHT22;37815;52.692;6.226;2023-04-16T05:52:11;11.00;97.00
51739;DHT22;37815;52.692;6.226;2023-04-16T05:57:13;11.00;97.10
51739;DHT22;37815;52.692;6.226;2023-04-16T06:02:14;11.00;97.00
51739;DHT22;37815;52.692;6.226;2023-04-16T06:07:14;11.00;97.00
51739;DHT22;37815;52.692;6.226;2023-04-16T06:12:15;11.00;97.00
51739;DHT22;37815;52.692;6.226;2023-04-16T06:17:16;11.10;97.00
51739;DHT22;37815;52.692;6.226;2023-04-16T06:22:16;11.10;97.00
51739;DHT22;37815;52.692;6.226;2023-04-16T06:27:17;11.20;97.00
51739;DHT22;37815;52.692;6.226;2023-04-16T06:32:17;11.10;97.00
51739;DHT22;37815;52.692;6.226;2023-04-16T06:37:18;11.10;96.90
51739;DHT22;37815;52.692;6.226;2023-04-16T06:42:19;11.10;96.90
51739;DHT22;37815;52.692;6.226;2023-04-16T06:47:20;11.10;96.90
51739;DHT22;37815;52.692;6.226;2023-04-16T06:52:20;11.10;96.90
51739;DHT22;37815;52.692;6.226;2023-04-16T06:57:21;11.10;96.90
51739;DHT22;37815;52.692;6.226;2023-04-16T07:02:22;11.10;97.10
51739;DHT22;37815;52.692;6.226;2023-04-16T07:07:23;11.20;96.90
51739;DHT22;37815;52.692;6.226;2023-04-16T07:12:24;11.10;96.90
51739;DHT22;37815;52.692;6.226;2023-04-16T07:17:24;11.20;96.90
51739;DHT22;37815;52.692;6.226;2023-04-16T07:22:25;11.20;96.90
51739;DHT22;37815;52.692;6.226;2023-04-16T07:27:25;11.20;96.90
51739;DHT22;37815;52.692;6.226;2023-04-16T07:32:26;11.20;96.90
51739;DHT22;37815;52.692;6.226;2023-04-16T07:37:27;11.20;96.90
51739;DHT22;37815;52.692;6.226;2023-04-16T07:42:27;11.20;96.90
51739;DHT22;37815;52.692;6.226;2023-04-16T07:47:28;11.30;97.10
51739;DHT22;37815;52.692;6.226;2023-04-16T07:52:29;11.30;96.80
51739;DHT22;37815;52.692;6.226;2023-04-16T07:57:29;11.40;96.80
51739;DHT22;37815;52.692;6.226;2023-04-16T08:02:30;11.40;96.80
51739;DHT22;37815;52.692;6.226;2023-04-16T08:07:31;11.40;96.80
51739;DHT22;37815;52.692;6.226;2023-04-16T08:12:31;11.50;96.80
51739;DHT22;37815;52.692;6.226;2023-04-16T08:17:32;11.50;96.80
51739;DHT22;37815;52.692;6.226;2023-04-16T08:22:33;11.60;96.80
51739;DHT22;37815;52.692;6.226;2023-04-16T08:27:34;11.60;96.80
51739;DHT22;37815;52.692;6.226;2023-04-16T08:32:35;11.60;96.80
51739;DHT22;37815;52.692;6.226;2023-04-16T08:37:38;11.70;96.80
51739;DHT22;37815;52.692;6.226;2023-04-16T08:42:50;11.70;96.70
51739;DHT22;37815;52.692;6.226;2023-04-16T08:47:52;11.80;96.80
51739;DHT22;37815;52.692;6.226;2023-04-16T08:52:58;11.80;96.80
51739;DHT22;37815;52.692;6.226;2023-04-16T08:58:03;11.80;96.80
51739;DHT22;37815;52.692;6.226;2023-04-16T09:03:07;11.90;96.80
51739;DHT22;37815;52.692;6.226;2023-04-16T09:08:09;12.00;96.80
51739;DHT22;37815;52.692;6.226;2023-04-16T09:13:10;12.00;96.80
51739;DHT22;37815;52.692;6.226;2023-04-16T09:18:12;12.00;96.80
51739;DHT22;37815;52.692;6.226;2023-04-16T09:23:13;12.10;96.80
51739;DHT22;37815;52.692;6.226;2023-04-16T09:28:40;12.20;96.80
51739;DHT22;37815;52.692;6.226;2023-04-16T09:33:42;12.20;96.90
51739;DHT22;37815;52.692;6.226;2023-04-16T09:38:51;12.30;96.70
51739;DHT22;37815;52.692;6.226;2023-04-16T09:48:57;12.40;96.60
51739;DHT22;37815;52.692;6.226;2023-04-16T09:53:57;12.50;96.60
51739;DHT22;37815;52.692;6.226;2023-04-16T09:59:01;12.50;96.50
51739;DHT22;37815;52.692;6.226;2023-04-16T10:04:05;12.60;96.50
51739;DHT22;37815;52.692;6.226;2023-04-16T10:09:07;12.70;96.50
51739;DHT22;37815;52.692;6.226;2023-04-16T10:14:08;12.80;96.40
51739;DHT22;37815;52.692;6.226;2023-04-16T10:19:09;12.80;96.40
51739;DHT22;37815;52.692;6.226;2023-04-16T10:24:09;12.90;96.40
51739;DHT22;37815;52.692;6.226;2023-04-16T10:29:11;12.90;96.40
51739;DHT22;37815;52.692;6.226;2023-04-16T10:34:13;12.90;96.30
51739;DHT22;37815;52.692;6.226;2023-04-16T10:39:20;12.90;96.30
51739;DHT22;37815;52.692;6.226;2023-04-16T10:44:23;13.00;96.30
51739;DHT22;37815;52.692;6.226;2023-04-16T10:49:25;13.00;96.30
51739;DHT22;37815;52.692;6.226;2023-04-16T10:54:27;13.10;96.30
51739;DHT22;37815;52.692;6.226;2023-04-16T10:59:33;13.10;96.30
51739;DHT22;37815;52.692;6.226;2023-04-16T11:04:36;13.10;96.30
51739;DHT22;37815;52.692;6.226;2023-04-16T11:14:51;13.20;96.30
51739;DHT22;37815;52.692;6.226;2023-04-16T11:19:52;13.30;96.30
51739;DHT22;37815;52.692;6.226;2023-04-16T11:24:54;13.30;96.30
51739;DHT22;37815;52.692;6.226;2023-04-16T11:30:00;13.40;96.30
51739;DHT22;37815;52.692;6.226;2023-04-16T11:35:03;13.50;97.10
51739;DHT22;37815;52.692;6.226;2023-04-16T11:40:11;13.70;96.40
51739;DHT22;37815;52.692;6.226;2023-04-16T11:45:12;13.80;96.30
51739;DHT22;37815;52.692;6.226;2023-04-16T11:50:26;13.80;96.20
51739;DHT22;37815;52.692;6.226;2023-04-16T11:55:27;13.80;96.30
51739;DHT22;37815;52.692;6.226;2023-04-16T12:00:34;13.80;96.30
51739;DHT22;37815;52.692;6.226;2023-04-16T12:05:39;13.90;96.30
51739;DHT22;37815;52.692;6.226;2023-04-16T12:10:53;13.80;96.30
51739;DHT22;37815;52.692;6.226;2023-04-16T12:15:55;13.90;96.40
51739;DHT22;37815;52.692;6.226;2023-04-16T12:20:56;13.80;96.30
51739;DHT22;37815;52.692;6.226;2023-04-16T12:25:57;13.90;96.60
51739;DHT22;37815;52.692;6.226;2023-04-16T12:31:02;13.90;97.30
51739;DHT22;37815;52.692;6.226;2023-04-16T12:36:22;13.90;97.60
51739;DHT22;37815;52.692;6.226;2023-04-16T12:41:24;14.20;98.80
51739;DHT22;37815;52.692;6.226;2023-04-16T12:46:24;14.20;97.60
51739;DHT22;37815;52.692;6.226;2023-04-16T12:51:25;14.20;97.70
51739;DHT22;37815;52.692;6.226;2023-04-16T12:56:26;14.30;97.70
51739;DHT22;37815;52.692;6.226;2023-04-16T13:01:27;14.50;97.30
51739;DHT22;37815;52.692;6.226;2023-04-16T13:06:27;14.60;97.30
51739;DHT22;37815;52.692;6.226;2023-04-16T13:11:28;14.60;97.40
51739;DHT22;37815;52.692;6.226;2023-04-16T13:16:28;14.60;97.30
51739;DHT22;37815;52.692;6.226;2023-04-16T13:21:29;14.70;97.40
51739;DHT22;37815;52.692;6.226;2023-04-16T13:26:30;14.90;97.40
51739;DHT22;37815;52.692;6.226;2023-04-16T13:31:31;14.60;97.20
51739;DHT22;37815;52.692;6.226;2023-04-16T13:36:32;15.00;97.20
51739;DHT22;37815;52.692;6.226;2023-04-16T13:41:33;15.30;96.80
51739;DHT22;37815;52.692;6.226;2023-04-16T13:46:34;15.40;96.70
51739;DHT22;37815;52.692;6.226;2023-04-16T13:51:34;15.40;96.70
51739;DHT22;37815;52.692;6.226;2023-04-16T13:56:36;15.60;96.60
51739;DHT22;37815;52.692;6.226;2023-04-16T14:01:36;15.60;96.50
51739;DHT22;37815;52.692;6.226;2023-04-16T14:06:37;15.40;96.60
51739;DHT22;37815;52.692;6.226;2023-04-16T14:11:38;15.30;96.80
51739;DHT22;37815;52.692;6.226;2023-04-16T14:16:38;15.40;96.60
51739;DHT22;37815;52.692;6.226;2023-04-16T14:21:39;15.30;96.70
51739;DHT22;37815;52.692;6.226;2023-04-16T14:26:42;15.40;96.70
51739;DHT22;37815;52.692;6.226;2023-04-16T14:31:44;15.70;96.40
51739;DHT22;37815;52.692;6.226;2023-04-16T14:36:45;15.70;96.20
51739;DHT22;37815;52.692;6.226;2023-04-16T14:41:48;15.50;96.40
51739;DHT22;37815;52.692;6.226;2023-04-16T14:46:48;15.50;96.60
51739;DHT22;37815;52.692;6.226;2023-04-16T14:51:49;15.20;96.80
51739;DHT22;37815;52.692;6.226;2023-04-16T14:56:51;15.10;96.90
51739;DHT22;37815;52.692;6.226;2023-04-16T15:01:54;15.20;96.90
51739;DHT22;37815;52.692;6.226;2023-04-16T15:06:55;15.30;96.70
51739;DHT22;37815;52.692;6.226;2023-04-16T15:11:58;15.70;96.40
51739;DHT22;37815;52.692;6.226;2023-04-16T15:16:59;15.90;96.00
51739;DHT22;37815;52.692;6.226;2023-04-16T15:21:59;15.70;96.30
51739;DHT22;37815;52.692;6.226;2023-04-16T15:27:00;15.50;96.40
51739;DHT22;37815;52.692;6.226;2023-04-16T15:32:01;15.60;96.20
51739;DHT22;37815;52.692;6.226;2023-04-16T15:37:02;15.80;96.10
51739;DHT22;37815;52.692;6.226;2023-04-16T15:42:06;15.90;95.90
51739;DHT22;37815;52.692;6.226;2023-04-16T15:47:06;16.10;95.90
51739;DHT22;37815;52.692;6.226;2023-04-16T15:52:08;16.10;95.90
51739;DHT22;37815;52.692;6.226;2023-04-16T15:57:11;16.20;95.90
51739;DHT22;37815;52.692;6.226;2023-04-16T16:02:11;16.30;96.00
51739;DHT22;37815;52.692;6.226;2023-04-16T16:07:12;16.30;96.00
51739;DHT22;37815;52.692;6.226;2023-04-16T16:12:14;16.30;95.90
51739;DHT22;37815;52.692;6.226;2023-04-16T16:17:15;16.00;95.90
51739;DHT22;37815;52.692;6.226;2023-04-16T16:22:16;16.00;96.20
51739;DHT22;37815;52.692;6.226;2023-04-16T16:27:19;16.00;96.20
51739;DHT22;37815;52.692;6.226;2023-04-16T16:32:20;16.00;96.20
51739;DHT22;37815;52.692;6.226;2023-04-16T16:37:21;16.00;96.30
51739;DHT22;37815;52.692;6.226;2023-04-16T16:42:21;16.00;96.30
51739;DHT22;37815;52.692;6.226;2023-04-16T16:47:22;15.90;96.40
51739;DHT22;37815;52.692;6.226;2023-04-16T16:52:24;15.90;96.40
51739;DHT22;37815;52.692;6.226;2023-04-16T16:57:25;15.90;96.40
51739;DHT22;37815;52.692;6.226;2023-04-16T17:02:26;15.80;96.50
51739;DHT22;37815;52.692;6.226;2023-04-16T17:07:26;15.90;96.50
51739;DHT22;37815;52.692;6.226;2023-04-16T17:12:27;15.80;96.60
51739;DHT22;37815;52.692;6.226;2023-04-16T17:17:28;15.80;96.60
51739;DHT22;37815;52.692;6.226;2023-04-16T17:22:28;15.70;96.60
51739;DHT22;37815;52.692;6.226;2023-04-16T17:27:29;15.70;96.70
51739;DHT22;37815;52.692;6.226;2023-04-16T17:32:33;15.60;96.70
51739;DHT22;37815;52.692;6.226;2023-04-16T17:37:34;15.60;96.80
51739;DHT22;37815;52.692;6.226;2023-04-16T17:42:35;15.50;96.90
51739;DHT22;37815;52.692;6.226;2023-04-16T17:47:36;15.40;96.90
51739;DHT22;37815;52.692;6.226;2023-04-16T17:52:36;15.40;97.00
51739;DHT22;37815;52.692;6.226;2023-04-16T17:57:37;15.50;97.10
51739;DHT22;37815;52.692;6.226;2023-04-16T18:02:38;15.40;97.10
51739;DHT22;37815;52.692;6.226;2023-04-16T18:07:40;15.30;97.10
51739;DHT22;37815;52.692;6.226;2023-04-16T18:12:40;15.30;97.20
51739;DHT22;37815;52.692;6.226;2023-04-16T18:17:41;15.20;97.20
51739;DHT22;37815;52.692;6.226;2023-04-16T18:22:41;15.20;97.30
51739;DHT22;37815;52.692;6.226;2023-04-16T18:27:42;15.10;97.60
51739;DHT22;37815;52.692;6.226;2023-04-16T18:32:43;15.00;97.30
51739;DHT22;37815;52.692;6.226;2023-04-16T18:37:45;15.00;97.40
51739;DHT22;37815;52.692;6.226;2023-04-16T18:42:46;15.00;97.40
51739;DHT22;37815;52.692;6.226;2023-04-16T18:47:46;14.90;97.40
51739;DHT22;37815;52.692;6.226;2023-04-16T18:52:47;14.90;97.70
51739;DHT22;37815;52.692;6.226;2023-04-16T18:57:47;14.90;97.40
51739;DHT22;37815;52.692;6.226;2023-04-16T19:02:48;14.80;97.40
51739;DHT22;37815;52.692;6.226;2023-04-16T19:07:49;14.80;97.50
51739;DHT22;37815;52.692;6.226;2023-04-16T19:12:51;14.80;97.50
51739;DHT22;37815;52.692;6.226;2023-04-16T19:17:51;14.70;97.50
51739;DHT22;37815;52.692;6.226;2023-04-16T19:22:52;14.60;97.50
51739;DHT22;37815;52.692;6.226;2023-04-16T19:27:53;14.60;97.50
51739;DHT22;37815;52.692;6.226;2023-04-16T19:32:55;14.60;97.50
51739;DHT22;37815;52.692;6.226;2023-04-16T19:37:55;14.60;97.50
51739;DHT22;37815;52.692;6.226;2023-04-16T19:42:56;14.50;97.50
51739;DHT22;37815;52.692;6.226;2023-04-16T19:47:56;14.50;97.50
51739;DHT22;37815;52.692;6.226;2023-04-16T19:52:57;14.50;97.50
51739;DHT22;37815;52.692;6.226;2023-04-16T19:57:58;14.40;97.50
51739;DHT22;37815;52.692;6.226;2023-04-16T20:03:04;14.40;97.50
51739;DHT22;37815;52.692;6.226;2023-04-16T20:08:05;14.30;97.60
51739;DHT22;37815;52.692;6.226;2023-04-16T20:13:06;14.30;97.50
51739;DHT22;37815;52.692;6.226;2023-04-16T20:18:11;14.30;97.60
51739;DHT22;37815;52.692;6.226;2023-04-16T20:23:13;14.30;97.60
51739;DHT22;37815;52.692;6.226;2023-04-16T20:28:13;14.20;97.60
51739;DHT22;37815;52.692;6.226;2023-04-16T20:33:15;14.20;97.60
51739;DHT22;37815;52.692;6.226;2023-04-16T20:38:16;14.10;97.60
51739;DHT22;37815;52.692;6.226;2023-04-16T20:43:22;14.10;97.60
51739;DHT22;37815;52.692;6.226;2023-04-16T20:48:25;14.00;97.60
51739;DHT22;37815;52.692;6.226;2023-04-16T20:53:26;14.00;97.60
51739;DHT22;37815;52.692;6.226;2023-04-16T20:58:28;14.00;97.60
51739;DHT22;37815;52.692;6.226;2023-04-16T21:03:35;13.90;97.60
51739;DHT22;37815;52.692;6.226;2023-04-16T21:08:36;13.90;97.60
51739;DHT22;37815;52.692;6.226;2023-04-16T21:13:36;13.90;97.60
51739;DHT22;37815;52.692;6.226;2023-04-16T21:18:37;13.80;97.60
51739;DHT22;37815;52.692;6.226;2023-04-16T21:23:38;13.80;97.60
51739;DHT22;37815;52.692;6.226;2023-04-16T21:28:38;13.80;97.60
51739;DHT22;37815;52.692;6.226;2023-04-16T21:33:39;13.70;97.60
51739;DHT22;37815;52.692;6.226;2023-04-16T21:38:39;13.70;97.60
51739;DHT22;37815;52.692;6.226;2023-04-16T21:43:40;13.60;97.60
51739;DHT22;37815;52.692;6.226;2023-04-16T21:48:41;13.60;97.60
51739;DHT22;37815;52.692;6.226;2023-04-16T21:53:41;13.60;97.60
51739;DHT22;37815;52.692;6.226;2023-04-16T21:58:42;13.50;97.50
51739;DHT22;37815;52.692;6.226;2023-04-16T22:03:42;13.50;97.50
51739;DHT22;37815;52.692;6.226;2023-04-16T22:08:43;13.50;97.50
51739;DHT22;37815;52.692;6.226;2023-04-16T22:13:44;13.50;97.50
51739;DHT22;37815;52.692;6.226;2023-04-16T22:18:45;13.40;97.50
51739;DHT22;37815;52.692;6.226;2023-04-16T22:23:46;13.40;97.50
51739;DHT22;37815;52.692;6.226;2023-04-16T22:28:47;13.40;97.80
51739;DHT22;37815;52.692;6.226;2023-04-16T22:33:47;13.40;97.50
51739;DHT22;37815;52.692;6.226;2023-04-16T22:38:48;13.30;97.50
51739;DHT22;37815;52.692;6.226;2023-04-16T22:43:48;13.30;97.50
51739;DHT22;37815;52.692;6.226;2023-04-16T22:48:50;13.30;97.50
51739;DHT22;37815;52.692;6.226;2023-04-16T22:53:51;13.30;97.50
51739;DHT22;37815;52.692;6.226;2023-04-16T22:58:51;13.20;97.40
51739;DHT22;37815;52.692;6.226;2023-04-16T23:03:52;13.20;97.40
51739;DHT22;37815;52.692;6.226;2023-04-16T23:08:53;13.20;97.40
51739;DHT22;37815;52.692;6.226;2023-04-16T23:13:53;13.20;97.40
51739;DHT22;37815;52.692;6.226;2023-04-16T23:18:54;13.10;97.40
51739;DHT22;37815;52.692;6.226;2023-04-16T23:23:54;13.10;97.40
51739;DHT22;37815;52.692;6.226;2023-04-16T23:28:56;13.10;97.40
51739;DHT22;37815;52.692;6.226;2023-04-16T23:33:56;13.00;97.40
51739;DHT22;37815;52.692;6.226;2023-04-16T23:38:57;13.10;97.40
51739;DHT22;37815;52.692;6.226;2023-04-16T23:43:58;13.00;97.40
51739;DHT22;37815;52.692;6.226;2023-04-16T23:48:58;13.00;97.40
51739;DHT22;37815;52.692;6.226;2023-04-16T23:53:59;13.00;97.30
51739;DHT22;37815;52.692;6.226;2023-04-16T23:58:59;13.00;97.30
